Québec, Quebec

08:53 EDT le 29 août 2016 (GMT -0400)
Ancienne-Lorette | | Change Station

Alt. 187 ft 46.80 °N, 71.37 °W | Updated 16 seconds ago

Mostly Cloudy
Nuageux
65.5 ° F
Paraît 65.5 ° F
N
6.0
Vent Variable Vent de OSO
Gusts 8.0 mph

Aujourd'hui
Haut(e) -- | Bas -- ° F
--% Risque de précip.
Hier
Haut(e) -- | Bas -- ° F
Precip. -- pouce
Pression 29.98 pouce
Visibilité 30.0 Miles terrestres
Nuages Nuageux 4500 ft
Point de rosée 56 ° F
Humidité 72%
Précipitations 0.02 pouce
Profondeur de la couche neigeuse Non disponible.
6:01 AM 7:29 PM
Lune descendante, 9% visible
METAR CYQB 291200Z 27010KT 30SM BKN045 18/13 A2997 RMK SC7 SLP152 DENSITY ALT 600FT
Pression 29.98 pouce
Visibilité 30.0 Miles terrestres
Nuages Nuageux 4500 ft
Point de rosée 56 ° F
Humidité 72%
Précipitations 0.02 pouce
Profondeur de la couche neigeuse Non disponible.
6:01 AM 7:29 PM
Lune descendante, 9% visible
METAR CYQB 291200Z 27010KT 30SM BKN045 18/13 A2997 RMK SC7 SLP152 DENSITY ALT 600FT

10-Day Weather Forecast

Almanac

Astronomie

Aug. 29, 2016 Lever Coucher
Temps réel
Crépuscule civil
Crépuscule nautique
Crépuscule astronomique
Lune
Durée de lumière visible
Longueur du jour
Tomorrow will be .
, % of the Moon is Illuminated

Extrêmes aujourd'hui

Country Highs Country Lows

Community

WunderPhotos

Upload Photos

1,935,810 Photos téléchargées !

WunderBlog® & News

Nearby

Qualité de l'air

  Qualité de l'air Indice de la qualité de l'air Polluant
Not available.

Épaisseur de neige

Station Depth Altitude

Activité sismique

Ville Distance Mag. Time & Date
Minimum magnitude displayed is 2.5.

Températures des eaux côtières

Lieu Température

Stations

Stations météo à proximité

Emplacement de la station Température Refroidissement éolien Point de rosée Humidité Vent Precip. Alt. Mise à jour Type
                   

Watches & Warnings

There are currently no watches in effect.